RYR45MF LOWW-LFML
Flight info
| Callsign | RYR45MF |
|---|---|
| Flight time | N/A |
| Altitude | 34000 |
| Route | OSPEN DCT ABRUK DCT SETAL DCT DETSA DCT LAGEN DCT ENOBA DCT ASBOP DCT BORDI DCT PIGOS DCT STP A3 RUBIT G7 LANKO |
| Aircraft | A320/M-SDE3FGHIRWY/LB1 |
Departure
| Time | 2026-04-21 15:07 |
|---|---|
| Airport | Vienna International Airport (LOWW) |
Arrival
| Time | N/A |
|---|---|
| Airport | Marseille Provence Airport (LFML) |
| Time | Latitude | Longitude | Altitude | Speed | Heading |
|---|---|---|---|---|---|
| 2026-04-21 14:50 | 48.12010 | 16.55429 | 626 ft | 0 kts | 296° |
| 2026-04-21 15:02 | 48.12016 | 16.55411 | 623 ft | 3 kts | 296° |
| 2026-04-21 15:02 | 48.12021 | 16.55365 | 615 ft | 5 kts | 253° |
| 2026-04-21 15:02 | 48.11982 | 16.55327 | 612 ft | 9 kts | 207° |
| 2026-04-21 15:03 | 48.11944 | 16.55247 | 611 ft | 11 kts | 267° |
| 2026-04-21 15:03 | 48.11891 | 16.55194 | 610 ft | 12 kts | 146° |
| 2026-04-21 15:03 | 48.11849 | 16.55308 | 612 ft | 14 kts | 116° |
| 2026-04-21 15:03 | 48.11805 | 16.55446 | 610 ft | 16 kts | 116° |
| 2026-04-21 15:04 | 48.11753 | 16.55604 | 617 ft | 18 kts | 116° |
| 2026-04-21 15:04 | 48.11695 | 16.55785 | 612 ft | 20 kts | 115° |
| 2026-04-21 15:04 | 48.11629 | 16.55987 | 620 ft | 23 kts | 117° |
| 2026-04-21 15:04 | 48.11556 | 16.56212 | 618 ft | 25 kts | 116° |
| 2026-04-21 15:05 | 48.11476 | 16.56458 | 617 ft | 27 kts | 116° |
| 2026-04-21 15:05 | 48.11349 | 16.56773 | 615 ft | 11 kts | 166° |
| 2026-04-21 15:05 | 48.11299 | 16.56696 | 617 ft | 13 kts | 264° |
| 2026-04-21 15:06 | 48.11291 | 16.56550 | 610 ft | 16 kts | 265° |
| 2026-04-21 15:06 | 48.11297 | 16.56370 | 610 ft | 19 kts | 290° |
| 2026-04-21 15:06 | 48.11421 | 16.55979 | 616 ft | 75 kts | 296° |
| 2026-04-21 15:06 | 48.11735 | 16.55011 | 620 ft | 130 kts | 296° |
| 2026-04-21 15:07 | 48.12187 | 16.53635 | 834 ft | 151 kts | 297° |
| 2026-04-21 15:07 | 48.12268 | 16.52089 | 1454 ft | 159 kts | 249° |
| 2026-04-21 15:07 | 48.11497 | 16.50834 | 1926 ft | 178 kts | 215° |
| 2026-04-21 15:07 | 48.10381 | 16.49791 | 2235 ft | 200 kts | 216° |
| 2026-04-21 15:08 | 48.09156 | 16.48578 | 2538 ft | 224 kts | 217° |
| 2026-04-21 15:08 | 48.07799 | 16.47182 | 3027 ft | 249 kts | 220° |
| 2026-04-21 15:08 | 48.06379 | 16.45506 | 3698 ft | 269 kts | 222° |
| 2026-04-21 15:08 | 48.04929 | 16.43665 | 4565 ft | 277 kts | 223° |
| 2026-04-21 15:09 | 48.03461 | 16.41750 | 5473 ft | 282 kts | 223° |
| 2026-04-21 15:09 | 48.01974 | 16.39794 | 6382 ft | 286 kts | 223° |
| 2026-04-21 15:09 | 48.00473 | 16.37818 | 7292 ft | 289 kts | 223° |
| 2026-04-21 15:09 | 47.98958 | 16.35830 | 8207 ft | 291 kts | 223° |
| 2026-04-21 15:10 | 47.97432 | 16.33821 | 9067 ft | 294 kts | 225° |
| 2026-04-21 15:10 | 47.96121 | 16.31503 | 9938 ft | 293 kts | 240° |
| 2026-04-21 15:10 | 47.95208 | 16.28766 | 10556 ft | 302 kts | 252° |
| 2026-04-21 15:10 | 47.94460 | 16.25718 | 10770 ft | 325 kts | 252° |
| 2026-04-21 15:11 | 47.93675 | 16.22482 | 11256 ft | 336 kts | 252° |
| 2026-04-21 15:11 | 47.92874 | 16.19184 | 11991 ft | 340 kts | 252° |